Time;durP1;ratioP1;P1;durP2;ratioP2;P2;SDS_P1;SDS_P2;PMS_P1;PMS_P2;Temp;Humidity;BMP_temperature;BMP_pressure;BME280_temperature;BME280_humidity;BME280_pressure;Samples;Min_cycle;Max_cycle;Signal;HPM_P1;HPM_P2
2022/10/21 00:00:39;;;;;;;9.82;6.80;;;;;;;17.92;67.96;99677.31;5052636;28;20053;-79
2022/10/21 00:03:06;;;;;;;8.52;6.90;;;;;;;17.86;68.46;99688.09;5052003;28;20060;-79
2022/10/21 00:05:33;;;;;;;12.77;7.80;;;;;;;17.76;68.82;99706.44;5051555;28;20064;-79
2022/10/21 00:08:01;;;;;;;13.27;7.82;;;;;;;17.67;69.51;99685.41;5064997;28;20508;-79
2022/10/21 00:10:28;;;;;;;11.02;7.97;;;;;;;17.65;69.58;99674.53;5054737;28;20077;-79
2022/10/21 00:12:55;;;;;;;13.63;8.02;;;;;;;17.55;69.92;99649.84;5052631;28;20509;-79
2022/10/21 00:15:22;;;;;;;17.40;9.27;;;;;;;17.37;70.28;99661.69;5052696;28;20067;-79
2022/10/21 00:17:51;;;;;;;11.10;7.53;;;;;;;17.48;70.00;99658.19;5052646;28;20061;-80
2022/10/21 00:20:19;;;;;;;9.98;8.20;;;;;;;17.43;70.28;99642.47;5052504;28;20417;-79
2022/10/21 00:22:47;;;;;;;12.10;8.23;;;;;;;17.49;70.28;99642.91;5051868;28;20063;-79
2022/10/21 00:25:15;;;;;;;10.50;7.73;;;;;;;17.55;70.21;99636.56;5052757;28;20052;-79
2022/10/21 00:27:43;;;;;;;13.05;8.23;;;;;;;17.51;70.17;99644.16;5051840;28;21053;-79
2022/10/21 00:30:12;;;;;;;11.48;8.15;;;;;;;17.53;69.91;99638.16;5052296;28;20056;-79
2022/10/21 00:32:40;;;;;;;9.73;7.45;;;;;;;17.36;71.14;99629.06;5051913;28;20478;-79
2022/10/21 00:35:09;;;;;;;15.20;7.25;;;;;;;17.50;70.82;99619.22;5052474;28;20495;-79
2022/10/21 00:37:36;;;;;;;10.75;7.82;;;;;;;17.56;70.93;99610.03;5052434;28;20067;-79
2022/10/21 00:40:04;;;;;;;10.30;7.47;;;;;;;17.62;69.99;99613.34;5052260;28;20401;-79
2022/10/21 00:42:35;;;;;;;10.18;7.38;;;;;;;17.68;69.96;99600.53;5061650;28;20052;-80
2022/10/21 00:45:20;;;;;;;11.60;7.25;;;;;;;17.75;69.63;99600.63;5048325;28;20057;-80
2022/10/21 00:47:51;;;;;;;10.95;7.28;;;;;;;17.81;69.56;99609.53;5072808;28;20068;-79
2022/10/21 00:50:26;;;;;;;8.80;7.43;;;;;;;17.82;68.75;99609.16;5057092;28;20061;-79
2022/10/21 00:52:56;;;;;;;10.65;6.97;;;;;;;17.81;69.46;99609.53;5058372;28;20056;-79
2022/10/21 00:55:26;;;;;;;10.95;7.00;;;;;;;17.76;68.99;99621.13;5047415;28;20064;-79
2022/10/21 00:57:53;;;;;;;;;;;;;;;17.57;69.69;99613.66;5052094;28;20045;-80
2022/10/21 01:00:21;;;;;;;9.95;7.18;;;;;;;17.62;69.84;99582.38;5048430;28;19928;-81
2022/10/21 01:02:48;;;;;;;8.52;6.80;;;;;;;17.57;70.05;99599.59;5067791;28;20056;-79
2022/10/21 01:05:17;;;;;;;8.82;6.40;;;;;;;17.65;70.11;99601.28;5058991;28;20064;-80
2022/10/21 01:07:48;;;;;;;10.57;7.57;;;;;;;17.70;69.41;99606.59;5050659;28;20056;-79
2022/10/21 01:10:16;;;;;;;10.68;8.02;;;;;;;17.72;69.63;99601.38;5049504;28;20054;-80
2022/10/21 01:12:57;;;;;;;10.25;7.03;;;;;;;17.72;69.48;99598.56;5055840;28;20065;-79
2022/10/21 01:15:30;;;;;;;10.48;6.97;;;;;;;17.70;69.44;99598.16;5058342;28;20067;-79
2022/10/21 01:18:07;;;;;;;11.23;7.05;;;;;;;17.76;69.19;99602.22;5058671;28;20060;-79
2022/10/21 01:21:06;;;;;;;10.18;7.13;;;;;;;17.78;69.07;99594.19;5058793;28;20555;-79
2022/10/21 01:24:03;;;;;;;9.87;7.77;;;;;;;17.76;69.02;99593.78;5054754;28;20059;-79
2022/10/21 01:27:26;;;;;;;10.85;7.45;;;;;;;17.62;68.80;99585.97;5039186;28;20506;-79
2022/10/21 01:30:17;;;;;;;9.07;6.22;;;;;;;17.62;69.13;99585.19;5034734;28;20053;-79
2022/10/21 01:33:19;;;;;;;8.85;6.43;;;;;;;17.65;68.39;99584.41;5040098;28;20061;-79
2022/10/21 01:35:52;;;;;;;7.45;6.20;;;;;;;17.66;68.38;99571.94;5025689;28;20511;-79
2022/10/21 01:38:24;;;;;;;8.52;6.20;;;;;;;17.57;68.73;99569.41;5052604;28;20060;-79
2022/10/21 01:40:57;;;;;;;11.20;5.88;;;;;;;17.58;68.69;99556.97;5058466;28;20064;-79
2022/10/21 01:43:34;;;;;;;6.97;4.90;;;;;;;17.45;68.67;99549.97;5060066;28;20592;-79
2022/10/21 01:46:04;;;;;;;7.80;5.32;;;;;;;17.51;68.87;99556.06;5058600;28;20504;-79
2022/10/21 01:48:37;;;;;;;8.40;5.38;;;;;;;17.42;68.80;99550.72;5058663;28;20076;-79
2022/10/21 01:51:07;;;;;;;7.93;5.18;;;;;;;17.52;68.15;99538.00;5058623;28;20064;-80
2022/10/21 01:53:40;;;;;;;9.75;5.18;;;;;;;17.51;68.60;99539.16;5068039;28;20060;-80
2022/10/21 01:56:09;;;;;;;7.70;4.90;;;;;;;17.47;67.71;99529.88;5078858;28;20052;-79
2022/10/21 01:58:39;;;;;;;8.18;5.05;;;;;;;17.44;68.06;99537.88;5075458;28;20057;-80
2022/10/21 02:01:08;;;;;;;6.13;5.53;;;;;;;17.43;67.60;99527.84;5075579;28;20060;-79
2022/10/21 02:03:41;;;;;;;6.55;4.72;;;;;;;17.50;67.32;99529.91;5075212;28;20052;-79
2022/10/21 02:06:12;;;;;;;8.95;4.68;;;;;;;17.45;67.33;99525.44;5066367;28;20417;-79
2022/10/21 02:08:40;;;;;;;10.48;4.85;;;;;;;17.43;67.52;99516.56;5054755;28;20144;-79
2022/10/21 02:11:10;;;;;;;5.18;4.38;;;;;;;17.43;66.87;99519.38;5055379;28;20064;-79
2022/10/21 02:13:43;;;;;;;6.47;4.03;;;;;;;17.41;66.73;99510.53;5063059;28;20048;-79
2022/10/21 02:16:15;;;;;;;6.78;4.25;;;;;;;17.44;66.18;99515.38;5075672;28;20060;-79
2022/10/21 02:18:44;;;;;;;6.15;4.30;;;;;;;17.51;66.49;99502.56;5075271;28;20390;-79
2022/10/21 02:21:17;;;;;;;6.33;4.30;;;;;;;17.49;66.13;99504.97;5063804;28;20057;-79
2022/10/21 02:23:52;;;;;;;7.63;4.57;;;;;;;17.49;66.00;99504.97;5055060;28;20064;-79
2022/10/21 02:26:19;;;;;;;5.82;4.05;;;;;;;17.44;66.01;99509.72;5055052;28;20421;-79
2022/10/21 02:28:47;;;;;;;5.90;3.97;;;;;;;17.37;66.07;99506.03;5054932;28;20429;-79
2022/10/21 02:31:27;;;;;;;4.95;3.60;;;;;;;17.36;66.29;99496.78;5054830;28;20057;-80
2022/10/21 02:34:04;;;;;;;6.47;4.32;;;;;;;17.35;66.12;99491.53;5053792;28;20053;-79
2022/10/21 02:36:43;;;;;;;7.30;4.22;;;;;;;17.30;65.98;99494.69;5048999;28;20067;-79
2022/10/21 02:39:17;;;;;;;5.93;4.30;;;;;;;17.27;66.03;99490.66;5054162;28;20079;-79
2022/10/21 02:41:49;;;;;;;5.13;3.90;;;;;;;17.21;66.33;99484.53;5054236;28;20072;-79
2022/10/21 02:44:16;;;;;;;9.13;4.57;;;;;;;17.18;67.06;99488.13;5053999;28;20413;-79
2022/10/21 02:46:46;;;;;;;5.68;4.70;;;;;;;17.12;67.25;99492.47;5054724;28;20057;-79
2022/10/21 02:49:15;;;;;;;5.78;5.03;;;;;;;17.05;67.52;99495.22;5053822;28;20053;-80
2022/10/21 02:51:43;;;;;;;7.00;4.68;;;;;;;17.00;67.72;99495.53;5053701;28;20432;-79
2022/10/21 02:54:10;;;;;;;5.80;4.10;;;;;;;16.91;67.73;99478.13;5054326;28;20504;-80
2022/10/21 02:56:37;;;;;;;5.72;3.92;;;;;;;16.82;67.17;99484.84;5054962;28;20053;-79
2022/10/21 02:59:04;;;;;;;4.57;3.33;;;;;;;16.78;67.02;99492.41;5053749;28;20064;-79
2022/10/21 03:01:32;;;;;;;4.40;3.03;;;;;;;16.79;67.02;99490.41;5054216;28;20064;-78
2022/10/21 03:03:59;;;;;;;5.13;3.45;;;;;;;16.72;66.82;99493.13;5053165;28;20064;-79
2022/10/21 03:06:28;;;;;;;6.30;3.17;;;;;;;16.76;67.23;99491.97;5033925;28;20053;-79
2022/10/21 03:08:55;;;;;;;3.88;2.95;;;;;;;16.80;67.04;99492.03;5034199;28;20061;-79
2022/10/21 03:11:23;;;;;;;5.95;3.13;;;;;;;16.76;67.06;99496.78;5034322;28;20065;-78
2022/10/21 03:13:50;;;;;;;5.78;3.42;;;;;;;16.74;67.39;99490.75;5034180;28;20057;-79
2022/10/21 03:16:17;;;;;;;6.40;2.85;;;;;;;16.78;67.20;99500.03;5033753;28;20061;-79
2022/10/21 03:18:45;;;;;;;6.35;3.25;;;;;;;16.76;67.43;99499.59;5033670;28;20058;-79
2022/10/21 03:21:12;;;;;;;5.95;3.08;;;;;;;16.74;67.44;99499.97;5034038;28;20053;-79
2022/10/21 03:23:41;;;;;;;6.97;3.10;;;;;;;16.73;67.64;99503.97;5033884;28;20502;-80
2022/10/21 03:26:08;;;;;;;5.07;2.88;;;;;;;16.75;67.38;99495.97;5033897;28;20069;-80
2022/10/21 03:28:35;;;;;;;3.45;2.70;;;;;;;16.72;67.76;99499.56;5033596;28;20421;-80
2022/10/21 03:31:02;;;;;;;5.57;2.95;;;;;;;16.77;67.54;99495.59;5033536;28;20057;-79
2022/10/21 03:33:30;;;;;;;5.28;2.63;;;;;;;16.77;67.74;99499.19;5028369;28;20461;-79
2022/10/21 03:35:57;;;;;;;4.35;2.65;;;;;;;16.76;67.82;99485.53;5013794;28;20057;-79
2022/10/21 03:38:24;;;;;;;4.32;2.53;;;;;;;16.78;67.73;99483.16;5018399;28;20053;-79
2022/10/21 03:40:53;;;;;;;5.40;2.65;;;;;;;16.79;67.77;99485.56;5032884;28;20084;-80
2022/10/21 03:43:21;;;;;;;4.07;2.80;;;;;;;16.80;67.87;99480.78;5033510;28;20061;-79
2022/10/21 03:45:48;;;;;;;3.75;2.78;;;;;;;16.80;67.78;99473.19;5032402;28;20057;-79
2022/10/21 03:48:15;;;;;;;6.60;3.10;;;;;;;16.81;67.61;99476.78;5033197;28;20049;-79
2022/10/21 03:50:42;;;;;;;3.53;2.80;;;;;;;16.81;67.93;99471.16;5033391;28;20516;-79
2022/10/21 03:53:10;;;;;;;4.63;3.08;;;;;;;16.79;67.27;99479.94;5033241;28;20060;-80
2022/10/21 03:55:37;;;;;;;5.18;2.75;;;;;;;16.78;67.59;99469.09;5033219;28;20497;-79
2022/10/21 03:58:06;;;;;;;5.45;2.65;;;;;;;16.77;67.56;99475.91;5033253;28;20057;-79
2022/10/21 04:00:33;;;;;;;4.30;2.87;;;;;;;16.69;67.50;99472.16;5032669;28;20441;-79
2022/10/21 04:03:01;;;;;;;3.65;2.58;;;;;;;16.66;68.23;99466.53;5053212;28;20776;-79
2022/10/21 04:05:28;;;;;;;3.88;2.35;;;;;;;16.67;68.26;99465.31;5064312;28;20489;-80
2022/10/21 04:07:55;;;;;;;4.53;2.63;;;;;;;16.66;68.39;99469.34;5072922;28;20067;-79
2022/10/21 04:10:22;;;;;;;3.55;2.35;;;;;;;16.60;68.40;99469.66;5072040;28;20060;-80
2022/10/21 04:12:50;;;;;;;4.22;2.22;;;;;;;16.62;68.72;99464.44;5072628;28;20064;-79
2022/10/21 04:15:19;;;;;;;6.10;2.70;;;;;;;16.61;68.58;99462.03;5071169;28;20063;-79
2022/10/21 04:17:46;;;;;;;7.00;2.80;;;;;;;16.60;68.39;99466.84;5072548;28;20079;-80
2022/10/21 04:20:14;;;;;;;4.45;2.83;;;;;;;16.60;68.06;99466.84;5072130;28;20083;-79
2022/10/21 04:22:41;;;;;;;5.35;2.70;;;;;;;16.58;68.59;99474.03;5071679;28;20049;-80
2022/10/21 04:25:08;;;;;;;4.47;2.35;;;;;;;16.48;68.82;99469.06;5066067;28;20051;-79
2022/10/21 04:27:36;;;;;;;4.20;2.17;;;;;;;16.54;68.66;99461.94;5052209;28;20057;-80
2022/10/21 04:30:04;;;;;;;3.78;2.08;;;;;;;16.52;68.40;99453.06;5052533;28;20080;-79
2022/10/21 04:32:33;;;;;;;4.55;2.63;;;;;;;16.60;67.98;99454.78;5051653;28;20060;-80
2022/10/21 04:35:00;;;;;;;3.55;1.70;;;;;;;16.66;68.06;99458.09;5050582;28;20482;-80
2022/10/21 04:37:27;;;;;;;2.72;1.70;;;;;;;16.70;67.49;99467.38;5052490;28;20053;-80
2022/10/21 04:39:56;;;;;;;4.90;2.35;;;;;;;16.64;68.08;99462.06;5041707;28;20058;-80
2022/10/21 04:42:23;;;;;;;5.20;2.42;;;;;;;16.73;67.63;99453.34;5032596;28;20417;-81
2022/10/21 04:44:50;;;;;;;3.55;1.83;;;;;;;16.74;67.52;99460.59;5032026;28;20061;-80
2022/10/21 04:47:18;;;;;;;3.50;2.10;;;;;;;16.78;67.09;99463.47;5031986;28;20064;-80
2022/10/21 04:49:46;;;;;;;3.70;2.00;;;;;;;16.79;67.57;99467.91;5037372;28;20052;-81
2022/10/21 04:52:14;;;;;;;3.33;2.00;;;;;;;16.80;67.67;99469.53;5032414;28;20477;-80
2022/10/21 04:54:41;;;;;;;3.08;1.83;;;;;;;16.86;67.49;99472.84;5066621;28;20065;-80
2022/10/21 04:57:08;;;;;;;6.72;2.20;;;;;;;16.73;67.93;99466.59;5026346;28;20060;-80
2022/10/21 04:59:36;;;;;;;4.05;2.05;;;;;;;16.81;67.88;99463.53;5049529;28;20420;-80
2022/10/21 05:02:03;;;;;;;3.92;2.08;;;;;;;16.81;67.91;99459.91;5051087;28;20057;-80
2022/10/21 05:04:30;;;;;;;3.65;2.17;;;;;;;16.83;67.64;99458.34;5047353;28;20064;-80
2022/10/21 05:06:59;;;;;;;4.70;2.13;;;;;;;16.83;67.89;99454.72;5051854;28;20057;-80
2022/10/21 05:09:26;;;;;;;3.13;2.03;;;;;;;16.81;67.76;99446.66;5056485;28;20052;-80
2022/10/21 05:11:53;;;;;;;5.18;1.98;;;;;;;16.73;68.04;99456.16;5071665;28;20053;-80
2022/10/21 05:14:20;;;;;;;3.17;2.30;;;;;;;16.79;68.48;99462.28;5071935;28;20412;-80
2022/10/21 05:16:47;;;;;;;3.10;2.15;;;;;;;16.70;68.80;99459.75;5066535;28;20060;-80
2022/10/21 05:19:15;;;;;;;5.20;2.50;;;;;;;16.68;68.93;99461.31;5048327;28;20053;-80
2022/10/21 05:21:42;;;;;;;4.68;2.28;;;;;;;16.77;68.11;99447.78;5046925;28;20060;-81
2022/10/21 05:24:11;;;;;;;5.57;1.88;;;;;;;16.76;68.41;99457.44;5050401;28;20063;-81
2022/10/21 05:26:38;;;;;;;3.47;1.90;;;;;;;16.72;68.57;99446.13;5051365;28;20060;-81
2022/10/21 05:29:05;;;;;;;4.60;2.30;;;;;;;16.81;67.94;99449.47;5060622;28;20111;-82
2022/10/21 05:31:33;;;;;;;4.72;2.22;;;;;;;16.78;68.04;99446.59;5071875;28;20053;-82
2022/10/21 05:34:00;;;;;;;3.38;2.20;;;;;;;16.78;68.50;99430.53;5073936;28;20061;-81
2022/10/21 05:36:27;;;;;;;4.18;1.95;;;;;;;16.82;68.48;99427.81;5044403;28;20041;-82
2022/10/21 05:38:55;;;;;;;2.60;1.88;;;;;;;16.83;68.18;99420.97;5053617;28;20069;-81
2022/10/21 05:41:23;;;;;;;2.85;1.98;;;;;;;16.80;68.62;99430.16;5055564;28;20091;-82
2022/10/21 05:43:51;;;;;;;5.07;2.28;;;;;;;16.81;68.47;99429.78;5055131;28;20057;-84
2022/10/21 05:46:18;;;;;;;3.70;2.70;;;;;;;16.88;68.29;99431.88;5063699;28;20060;-83
2022/10/21 05:48:45;;;;;;;4.05;2.50;;;;;;;16.85;68.32;99432.66;5055672;28;20057;-83
2022/10/21 05:51:12;;;;;;;4.05;2.20;;;;;;;16.86;68.42;99427.84;5054968;28;20053;-82
2022/10/21 05:53:39;;;;;;;4.07;2.13;;;;;;;16.85;68.32;99421.41;5064268;28;20056;-83
2022/10/21 05:56:08;;;;;;;9.48;2.63;;;;;;;16.77;68.93;99420.47;5050364;28;20418;-80
2022/10/21 05:58:36;;;;;;;6.90;2.60;;;;;;;16.80;68.75;99430.16;5055096;28;20068;-81
2022/10/21 06:01:04;;;;;;;10.52;2.47;;;;;;;16.81;68.73;99437.41;5043769;28;20060;-80
2022/10/21 06:03:33;;;;;;;3.70;2.47;;;;;;;16.87;68.18;99433.09;5054379;28;20075;-81
2022/10/21 06:06:01;;;;;;;;;;;;;;;16.84;68.40;99429.03;5052235;28;20063;-79
2022/10/21 06:08:30;;;;;;;3.53;2.20;;;;;;;16.83;68.51;99423.78;5054493;28;19921;-78
2022/10/21 06:11:01;;;;;;;4.53;2.38;;;;;;;16.79;68.70;99415.25;5054447;28;20053;-79
2022/10/21 06:13:29;;;;;;;6.70;2.88;;;;;;;16.83;68.40;99426.59;5055040;28;20084;-79
2022/10/21 06:15:58;;;;;;;3.47;2.72;;;;;;;16.79;68.59;99434.94;5054849;28;20056;-79
2022/10/21 06:18:25;;;;;;;4.10;2.40;;;;;;;16.78;68.40;99438.97;5054307;28;20061;-79
2022/10/21 06:20:53;;;;;;;3.92;2.50;;;;;;;16.77;68.82;99436.53;5047064;28;20064;-80
2022/10/21 06:23:20;;;;;;;4.10;2.40;;;;;;;16.71;68.51;99433.22;5054890;28;20056;-80
2022/10/21 06:25:55;;;;;;;4.28;2.40;;;;;;;16.72;68.93;99431.25;5063812;28;20057;-76
2022/10/21 06:28:23;;;;;;;5.07;2.42;;;;;;;16.72;68.85;99422.81;5053638;28;20508;-81
2022/10/21 06:30:51;;;;;;;5.35;2.70;;;;;;;16.75;68.96;99427.66;5048278;28;20409;-85
2022/10/21 06:33:20;;;;;;;3.60;2.40;;;;;;;16.77;68.48;99436.53;5064117;28;20057;-86
2022/10/21 06:35:47;;;;;;;5.90;2.72;;;;;;;16.78;69.13;99433.34;5054145;28;20060;-86
2022/10/21 06:38:15;;;;;;;4.75;2.60;;;;;;;16.81;68.93;99431.78;5060640;28;20413;-86
2022/10/21 06:40:43;;;;;;;3.92;2.58;;;;;;;16.79;68.90;99434.94;5053108;28;20057;-81
2022/10/21 06:43:10;;;;;;;4.30;2.88;;;;;;;16.78;68.75;99433.34;5068915;28;20061;-87
2022/10/21 06:45:37;;;;;;;3.78;2.60;;;;;;;16.81;68.80;99426.16;5064215;28;20057;-86
2022/10/21 06:48:05;;;;;;;4.15;2.58;;;;;;;16.83;68.56;99435.03;5056106;28;20060;-86
2022/10/21 06:50:34;;;;;;;4.22;3.28;;;;;;;16.84;68.88;99431.84;5058534;28;20061;-87
2022/10/21 06:53:01;;;;;;;7.50;3.45;;;;;;;16.84;68.75;99439.50;5057882;28;20061;-83
2022/10/21 06:55:28;;;;;;;6.13;3.50;;;;;;;16.85;68.54;99449.53;5054128;28;20057;-84
2022/10/21 06:57:56;;;;;;;6.57;3.15;;;;;;;16.84;68.72;99451.53;5054324;28;20498;-86
2022/10/21 07:00:23;;;;;;;5.25;3.17;;;;;;;16.88;68.84;99456.38;5052590;28;20053;-85
2022/10/21 07:02:50;;;;;;;6.57;3.47;;;;;;;16.91;68.82;99456.44;5054190;28;20057;-85
2022/10/21 07:05:18;;;;;;;5.10;3.17;;;;;;;16.92;68.82;99455.22;5053565;28;20053;-85
2022/10/21 07:07:46;;;;;;;6.43;3.47;;;;;;;16.86;69.14;99453.16;5054708;28;20057;-85
2022/10/21 07:10:13;;;;;;;4.30;3.08;;;;;;;16.92;68.72;99452.41;5054194;28;20057;-85
2022/10/21 07:12:41;;;;;;;4.85;2.75;;;;;;;16.98;69.08;99450.91;5053218;28;20057;-85
2022/10/21 07:15:09;;;;;;;5.68;3.40;;;;;;;17.01;69.11;99447.31;5055245;28;20417;-83
2022/10/21 07:17:36;;;;;;;8.25;3.20;;;;;;;17.10;69.09;99446.22;5054013;28;20061;-88
2022/10/21 07:20:04;;;;;;;5.25;3.33;;;;;;;17.15;68.54;99457.94;5053910;28;20057;-86
2022/10/21 07:22:31;;;;;;;7.13;2.90;;;;;;;17.22;68.64;99451.59;5053883;28;20064;-84
2022/10/21 07:25:00;;;;;;;4.47;2.92;;;;;;;17.28;68.23;99447.22;5066148;28;20067;-83
2022/10/21 07:27:27;;;;;;;6.43;3.07;;;;;;;17.35;68.71;99461.38;5051816;28;20057;-87
2022/10/21 07:29:54;;;;;;;4.93;3.03;;;;;;;17.43;68.20;99465.09;5053775;28;20056;-87
2022/10/21 07:32:22;;;;;;;7.47;3.08;;;;;;;17.45;68.22;99469.13;5054703;28;20049;-88
2022/10/21 07:34:49;;;;;;;6.13;3.20;;;;;;;17.52;68.15;99461.97;5054302;28;20053;-87
2022/10/21 07:37:16;;;;;;;6.10;3.10;;;;;;;17.58;67.97;99457.59;5054331;28;20052;-89
2022/10/21 07:39:44;;;;;;;4.00;2.85;;;;;;;17.61;68.26;99462.44;5053392;28;20064;-86
2022/10/21 07:42:13;;;;;;;5.90;3.47;;;;;;;17.67;68.48;99463.72;5052090;28;20065;-86
2022/10/21 07:44:40;;;;;;;7.78;3.40;;;;;;;17.76;67.24;99469.84;5053914;28;20053;-83
2022/10/21 07:47:07;;;;;;;7.43;3.20;;;;;;;17.81;67.90;99471.50;5052841;28;20409;-82
2022/10/21 07:49:34;;;;;;;8.65;4.00;;;;;;;17.82;67.26;99465.50;5053322;28;20056;-83
2022/10/21 07:52:02;;;;;;;6.30;3.38;;;;;;;17.88;67.11;99468.78;5052915;28;20060;-83
2022/10/21 07:54:29;;;;;;;7.00;3.60;;;;;;;17.92;67.60;99477.28;5052770;28;20080;-84
2022/10/21 07:56:57;;;;;;;5.45;3.10;;;;;;;17.88;67.15;99482.88;5054292;28;20049;-81
2022/10/21 07:59:26;;;;;;;6.22;3.78;;;;;;;17.82;67.68;99490.03;5052670;28;20089;-81
2022/10/21 08:01:53;;;;;;;5.82;2.90;;;;;;;17.59;68.21;99478.94;5052707;28;20060;-81
2022/10/21 08:04:23;;;;;;;2.80;2.17;;;;;;;17.73;67.56;99484.72;5052469;28;20053;-82
2022/10/21 08:06:50;;;;;;;5.03;2.60;;;;;;;17.75;67.77;99481.50;5054423;28;20056;-88
2022/10/21 08:09:18;;;;;;;5.78;2.72;;;;;;;17.81;67.91;99496.88;5055335;28;20060;-86
2022/10/21 08:11:45;;;;;;;6.82;2.85;;;;;;;17.87;68.15;99488.88;5053741;28;20061;-88
2022/10/21 08:14:13;;;;;;;4.88;2.65;;;;;;;17.91;67.67;99504.66;5053461;28;20061;-83
2022/10/21 08:16:42;;;;;;;10.13;2.80;;;;;;;17.83;68.15;99506.56;5053245;28;20072;-83
2022/10/21 08:19:15;;;;;;;4.63;2.40;;;;;;;17.82;67.99;99509.75;5053118;28;20413;-83
2022/10/21 08:21:42;;;;;;;4.40;2.63;;;;;;;18.00;67.60;99507.13;5053083;28;20049;-80
2022/10/21 08:24:09;;;;;;;5.82;2.80;;;;;;;17.97;67.75;99502.25;5059015;28;20492;-83
2022/10/21 08:26:36;;;;;;;3.97;2.38;;;;;;;18.08;67.72;99496.72;5072046;28;20056;-83
2022/10/21 08:29:04;;;;;;;5.63;2.78;;;;;;;18.13;67.42;99502.00;5053204;28;20489;-84
2022/10/21 08:31:32;;;;;;;5.80;2.22;;;;;;;18.23;66.88;99493.63;5052910;28;20061;-82
2022/10/21 08:34:01;;;;;;;5.07;2.45;;;;;;;18.30;66.92;99498.53;5051981;28;20056;-85
2022/10/21 08:36:28;;;;;;;7.68;2.45;;;;;;;18.25;67.55;99496.88;5052497;28;20059;-79
2022/10/21 08:38:55;;;;;;;8.15;2.70;;;;;;;18.38;67.08;99499.41;5052084;28;20072;-81
2022/10/21 08:41:50;;;;;;;8.02;3.03;;;;;;;18.28;67.15;99492.47;5052285;28;20053;-80
2022/10/21 08:44:29;;;;;;;7.90;3.08;;;;;;;18.43;67.56;99493.38;5039879;28;20069;-82
2022/10/21 08:47:02;;;;;;;5.30;3.25;;;;;;;18.39;67.27;99506.63;5058059;28;20072;-81
2022/10/21 08:49:41;;;;;;;9.15;2.67;;;;;;;18.38;67.73;99500.19;5051375;28;20057;-78
2022/10/21 08:52:14;;;;;;;4.22;2.70;;;;;;;18.38;67.96;99499.41;5052536;28;20056;-80
2022/10/21 08:54:47;;;;;;;5.80;2.88;;;;;;;18.40;67.72;99499.81;5056589;28;20508;-85
2022/10/21 08:57:15;;;;;;;7.85;3.47;;;;;;;18.32;67.87;99496.13;5052507;28;20064;-77
2022/10/21 08:59:42;;;;;;;8.52;3.30;;;;;;;18.30;68.11;99494.91;5051494;28;20441;-80
2022/10/21 09:02:29;;;;;;;6.80;3.20;;;;;;;18.38;68.27;99490.94;5054418;28;20072;-81
2022/10/21 09:05:23;;;;;;;6.32;3.00;;;;;;;18.31;68.41;99488.03;5051629;28;20424;-80
2022/10/21 09:08:00;;;;;;;7.53;3.30;;;;;;;18.28;68.50;99497.31;5051592;28;20416;-80
2022/10/21 09:10:39;;;;;;;6.80;3.17;;;;;;;18.00;69.25;99490.22;5054387;28;20060;-81
2022/10/21 09:13:13;;;;;;;7.40;3.23;;;;;;;17.99;70.00;99488.59;5056246;28;20398;-82
2022/10/21 09:15:53;;;;;;;7.45;3.25;;;;;;;18.00;70.76;99507.94;5055465;28;20059;-81
2022/10/21 09:18:34;;;;;;;8.20;3.42;;;;;;;18.00;71.00;99498.69;5055990;28;20061;-80
2022/10/21 09:21:13;;;;;;;8.07;3.90;;;;;;;17.74;75.98;99511.66;5055866;28;20064;-79
2022/10/21 09:23:53;;;;;;;8.07;4.15;;;;;;;17.47;78.28;99513.81;5054812;28;20049;-81
2022/10/21 09:26:32;;;;;;;100.25;11.80;;;;;;;16.60;93.40;99522.25;5036191;28;20068;-81
2022/10/21 09:29:02;;;;;;;109.32;14.02;;;;;;;16.02;100.00;99520.50;5035968;28;20057;-82
2022/10/21 09:31:30;;;;;;;26.63;13.40;;;;;;;16.05;100.00;99519.78;5056311;28;20493;-81
2022/10/21 09:34:02;;;;;;;26.88;11.20;;;;;;;15.58;100.00;99506.84;5055851;28;20273;-88
2022/10/21 09:36:36;;;;;;;23.25;11.55;;;;;;;15.53;100.00;99527.63;5054937;28;20068;-82
2022/10/21 09:39:07;;;;;;;27.50;13.00;;;;;;;15.56;100.00;99526.06;5036397;28;20064;-83
2022/10/21 09:41:40;;;;;;;21.30;11.57;;;;;;;15.48;100.00;99529.94;5053979;28;20057;-83
2022/10/21 09:44:13;;;;;;;22.23;10.65;;;;;;;15.42;100.00;99521.78;5055903;28;20053;-82
2022/10/21 09:46:43;;;;;;;17.73;11.30;;;;;;;15.34;100.00;99520.03;5055437;28;20504;-82
2022/10/21 09:49:18;;;;;;;20.23;11.77;;;;;;;15.48;100.00;99515.91;5055536;28;20493;-81
2022/10/21 09:51:48;;;;;;;31.50;14.68;;;;;;;15.43;100.00;99531.00;5056011;28;20044;-82
2022/10/21 09:54:20;;;;;;;14.65;8.90;;;;;;;15.21;100.00;99519.38;5055772;28;20064;-83
2022/10/21 09:56:57;;;;;;;20.27;8.52;;;;;;;15.27;100.00;99528.31;5055551;28;20061;-84
2022/10/21 09:59:25;;;;;;;22.48;11.55;;;;;;;15.29;100.00;99522.34;5055207;28;20063;-84
2022/10/21 10:01:53;;;;;;;18.45;10.20;;;;;;;15.35;100.00;99527.28;5070302;28;20123;-84
2022/10/21 10:04:24;;;;;;;26.65;12.55;;;;;;;15.49;100.00;99521.13;5075176;28;20060;-86
2022/10/21 10:06:53;;;;;;;22.35;12.13;;;;;;;15.43;100.00;99523.44;5060702;28;20064;-84
2022/10/21 10:09:27;;;;;;;32.20;15.23;;;;;;;15.29;100.00;99519.53;5058986;28;20049;-84
2022/10/21 10:11:57;;;;;;;16.30;9.13;;;;;;;15.27;100.00;99514.28;5055693;28;20057;-86
2022/10/21 10:14:32;;;;;;;13.80;9.43;;;;;;;15.38;100.00;99532.13;5055109;28;20760;-82
2022/10/21 10:17:25;;;;;;;29.65;14.82;;;;;;;15.57;100.00;99528.50;5055068;28;20080;-83
2022/10/21 10:20:15;;;;;;;31.48;15.82;;;;;;;15.74;100.00;99546.88;5051307;28;20060;-83
2022/10/21 10:22:46;;;;;;;31.83;16.42;;;;;;;15.89;100.00;99558.41;5042592;28;20057;-84
2022/10/21 10:25:24;;;;;;;32.15;15.50;;;;;;;15.91;100.00;99558.84;5048977;28;20065;-83
2022/10/21 10:27:54;;;;;;;26.60;14.90;;;;;;;16.06;100.00;99543.06;5054690;28;20064;-83
2022/10/21 10:30:22;;;;;;;22.52;12.07;;;;;;;16.02;100.00;99534.56;5054249;28;20060;-84
2022/10/21 10:32:52;;;;;;;24.67;13.23;;;;;;;16.20;100.00;99546.91;5054926;28;20057;-84
2022/10/21 10:35:28;;;;;;;28.38;15.07;;;;;;;16.16;100.00;99537.63;5055361;28;20419;-83
2022/10/21 10:38:00;;;;;;;39.00;18.58;;;;;;;16.37;100.00;99539.16;5058193;28;20061;-83
2022/10/21 10:40:31;;;;;;;31.17;16.10;;;;;;;16.52;100.00;99541.00;5055324;28;20409;-83
2022/10/21 10:43:04;;;;;;;23.05;14.48;;;;;;;16.63;100.00;99543.97;5054545;28;20068;-80
2022/10/21 10:45:32;;;;;;;18.90;12.13;;;;;;;16.78;100.00;99547.84;5055275;28;20061;-79
2022/10/21 10:48:03;;;;;;;20.90;13.18;;;;;;;16.79;100.00;99553.06;5053972;28;20413;-79
2022/10/21 10:50:45;;;;;;;24.35;12.75;;;;;;;16.57;100.00;99549.13;5054138;28;20057;-78
2022/10/21 10:53:29;;;;;;;21.95;11.18;;;;;;;16.55;100.00;99542.28;5055057;28;20390;-78
2022/10/21 10:56:04;;;;;;;11.77;9.23;;;;;;;16.66;100.00;99550.88;5055461;28;20060;-78
2022/10/21 10:58:35;;;;;;;12.00;6.97;;;;;;;16.69;100.00;99556.53;5054962;28;20065;-78
2022/10/21 11:01:12;;;;;;;11.90;7.13;;;;;;;16.79;100.00;99566.31;5056121;28;20064;-79
2022/10/21 11:03:44;;;;;;;7.60;5.40;;;;;;;16.59;100.00;99568.44;5054595;28;20053;-79
2022/10/21 11:06:17;;;;;;;8.05;5.75;;;;;;;16.50;100.00;99565.88;5054633;28;20061;-79
2022/10/21 11:08:50;;;;;;;11.43;7.93;;;;;;;16.68;100.00;99568.19;5053378;28;20050;-78
2022/10/21 11:11:24;;;;;;;10.20;6.13;;;;;;;16.75;100.00;99577.50;5064080;28;20044;-79
2022/10/21 11:13:52;;;;;;;11.48;7.55;;;;;;;16.60;100.00;99590.53;5078353;28;20057;-79
2022/10/21 11:16:33;;;;;;;12.65;8.00;;;;;;;16.74;100.00;99578.72;5077514;28;20053;-83
2022/10/21 11:19:15;;;;;;;7.32;5.93;;;;;;;16.68;100.00;99576.63;5073164;28;20055;-79
2022/10/21 11:21:44;;;;;;;10.35;7.43;;;;;;;16.70;100.00;99591.09;5077761;28;20053;-82
2022/10/21 11:24:26;;;;;;;9.88;5.93;;;;;;;16.24;100.00;99592.75;5077692;28;20059;-81
2022/10/21 11:27:02;;;;;;;9.95;5.80;;;;;;;16.30;100.00;99587.63;5058268;28;20068;-81
2022/10/21 11:29:39;;;;;;;11.02;6.50;;;;;;;16.31;100.00;99583.63;5072081;28;20071;-79
2022/10/21 11:32:19;;;;;;;8.50;4.60;;;;;;;16.31;100.00;99588.44;5076492;28;20060;-81
2022/10/21 11:34:56;;;;;;;6.25;4.05;;;;;;;16.11;100.00;99579.28;5076862;28;20049;-81
2022/10/21 11:37:43;;;;;;;8.98;5.82;;;;;;;16.11;100.00;99594.13;5076691;28;20040;-83
2022/10/21 11:40:26;;;;;;;6.30;4.05;;;;;;;16.26;100.00;99597.19;5074164;28;20033;-79
2022/10/21 11:42:57;;;;;;;7.32;4.30;;;;;;;16.14;100.00;99587.75;5055778;28;20057;-80
2022/10/21 11:45:37;;;;;;;7.78;5.53;;;;;;;16.28;100.00;99601.25;5054640;28;20067;-84